createdAt,value
2022-10-19T00:00:28.895Z,101261.78
2022-10-19T00:01:31.878Z,101266.20
2022-10-19T00:02:36.668Z,101261.60
2022-10-19T00:03:40.599Z,101261.60
2022-10-19T00:04:44.125Z,101258.88
2022-10-19T00:05:47.177Z,101263.27
2022-10-19T00:06:50.317Z,101262.45
2022-10-19T00:07:54.105Z,101255.11
2022-10-19T00:09:02.470Z,101251.36
2022-10-19T00:10:06.057Z,101254.08
2022-10-19T00:11:09.971Z,101253.23
2022-10-19T00:12:13.152Z,101252.20
2022-10-19T00:13:16.137Z,101249.48
2022-10-19T00:14:22.289Z,101254.08
2022-10-19T00:15:25.313Z,101249.48
2022-10-19T00:16:30.952Z,101248.64
2022-10-19T00:17:34.709Z,101247.61
2022-10-19T00:18:38.271Z,101247.61
2022-10-19T00:19:41.609Z,101240.30
2022-10-19T00:20:44.928Z,101241.33
2022-10-19T00:21:48.398Z,101244.89
2022-10-19T00:22:51.553Z,101236.91
2022-10-19T00:23:54.683Z,101240.48
2022-10-19T00:24:57.824Z,101244.23
2022-10-19T00:26:01.461Z,101235.89
2022-10-19T00:27:05.789Z,101239.64
2022-10-19T00:28:09.020Z,101237.97
2022-10-19T00:29:13.478Z,101238.79
2022-10-19T00:30:16.897Z,101235.25
2022-10-19T00:31:20.417Z,101233.56
2022-10-19T00:32:23.627Z,101227.45
2022-10-19T00:33:27.385Z,101232.05
2022-10-19T00:34:30.630Z,101227.63
2022-10-19T00:35:33.826Z,101227.63
2022-10-19T00:36:39.442Z,101224.06
2022-10-19T00:37:42.869Z,101230.56
2022-10-19T00:38:46.009Z,101226.15
2022-10-19T00:40:52.728Z,101224.28
2022-10-19T00:41:55.782Z,101218.17
2022-10-19T00:42:58.890Z,101220.05
2022-10-19T00:44:15.340Z,101213.97
2022-10-19T00:45:18.501Z,101221.45
2022-10-19T00:46:21.795Z,101219.94
2022-10-19T00:47:25.217Z,101218.46
2022-10-19T00:48:31.629Z,101226.80
2022-10-19T00:49:38.464Z,101220.90
2022-10-19T00:50:43.078Z,101217.69
2022-10-19T00:51:49.685Z,101217.05
2022-10-19T00:52:52.923Z,101225.38
2022-10-19T00:53:56.768Z,101217.61
2022-10-19T00:55:00.779Z,101214.90
2022-10-19T00:56:07.471Z,101207.77
2022-10-19T00:57:11.035Z,101215.08
2022-10-19T00:58:14.347Z,101210.66
2022-10-19T00:59:20.395Z,101214.41
2022-10-19T01:00:23.469Z,101206.64
2022-10-19T01:01:28.673Z,101201.38
2022-10-19T01:02:32.328Z,101200.70
2022-10-19T01:03:35.572Z,101206.35
2022-10-19T01:04:42.469Z,101201.77
2022-10-19T01:05:45.797Z,101196.51
2022-10-19T01:06:48.976Z,101194.64
2022-10-19T01:07:52.375Z,101197.35
2022-10-19T01:08:55.466Z,101192.77
2022-10-19T01:10:00.165Z,101188.17
2022-10-19T01:11:11.077Z,101181.89
2022-10-19T01:12:18.465Z,101182.74
2022-10-19T01:13:42.721Z,101180.88
2022-10-19T01:15:24.434Z,101181.23
2022-10-19T01:16:45.652Z,101178.51
2022-10-19T01:18:04.641Z,101171.38
2022-10-19T01:19:23.564Z,101171.59
2022-10-19T01:20:33.121Z,101174.31
2022-10-19T01:21:39.799Z,101166.16
2022-10-19T01:22:58.268Z,101170.53
2022-10-19T01:24:13.576Z,101167.64
2022-10-19T01:25:29.019Z,101173.74
2022-10-19T01:26:45.052Z,101171.03
2022-10-19T01:27:55.178Z,101163.72
2022-10-19T01:29:30.216Z,101169.80
2022-10-19T01:30:39.928Z,101168.95
2022-10-19T01:32:01.779Z,101163.72
2022-10-19T01:33:26.522Z,101156.59
2022-10-19T01:34:36.257Z,101157.62
2022-10-19T01:35:48.919Z,101160.34
2022-10-19T01:37:13.977Z,101159.48
2022-10-19T01:38:26.412Z,101150.49
2022-10-19T01:39:39.318Z,101144.21
2022-10-19T01:41:05.406Z,101142.34
2022-10-19T01:42:14.892Z,101143.19
2022-10-19T01:43:33.832Z,101146.75
2022-10-19T01:44:52.585Z,101135.03
2022-10-19T01:46:01.937Z,101135.03
2022-10-19T01:47:11.723Z,101140.47
2022-10-19T01:48:18.326Z,101143.36
2022-10-19T01:49:44.736Z,101137.93
2022-10-19T01:50:54.054Z,101139.80
2022-10-19T01:52:00.912Z,101126.21
2022-10-19T01:53:07.637Z,101139.80
2022-10-19T01:54:14.092Z,101134.36
2022-10-19T01:55:18.967Z,101135.21
2022-10-19T01:56:25.199Z,101135.21
2022-10-19T01:57:33.951Z,101131.65
2022-10-19T01:58:39.364Z,101129.98
2022-10-19T01:59:43.429Z,101138.14
2022-10-19T02:00:50.246Z,101137.08
2022-10-19T02:01:55.335Z,101133.55
2022-10-19T02:03:00.336Z,101137.93
2022-10-19T02:04:04.922Z,101138.77
2022-10-19T02:05:10.860Z,101133.34
2022-10-19T02:06:14.579Z,101133.34
2022-10-19T02:07:20.461Z,101135.88
2022-10-19T02:08:29.801Z,101132.31
2022-10-19T02:09:33.006Z,101131.47
2022-10-19T02:10:39.410Z,101126.88
2022-10-19T02:11:44.182Z,101124.16
2022-10-19T02:12:48.824Z,101130.45
2022-10-19T02:13:58.858Z,101120.42
2022-10-19T02:15:05.440Z,101119.58
2022-10-19T02:16:15.587Z,101121.27
2022-10-19T02:17:27.882Z,101120.42
2022-10-19T02:18:33.963Z,101123.14
2022-10-19T02:19:38.086Z,101117.70
2022-10-19T02:20:41.123Z,101115.17
2022-10-19T02:21:44.120Z,101117.03
2022-10-19T02:22:47.207Z,101113.47
2022-10-19T02:23:51.945Z,101108.25
2022-10-19T02:24:55.326Z,101114.53
2022-10-19T02:25:59.258Z,101109.91
2022-10-19T02:27:05.465Z,101104.47
2022-10-19T02:28:08.516Z,101115.34
2022-10-19T02:29:14.653Z,101098.23
2022-10-19T02:30:21.947Z,101105.32
2022-10-19T02:31:25.977Z,101104.30
2022-10-19T02:32:28.977Z,101100.73
2022-10-19T02:33:32.116Z,101102.61
2022-10-19T02:34:35.911Z,101106.17
2022-10-19T02:35:39.784Z,101096.33
2022-10-19T02:36:43.368Z,101100.94
2022-10-19T02:37:46.597Z,101100.28
2022-10-19T02:38:49.709Z,101097.73
2022-10-19T02:39:52.968Z,101091.46
2022-10-19T02:41:05.684Z,101089.77
2022-10-19T02:42:18.508Z,101084.33
2022-10-19T02:43:23.920Z,101087.27
2022-10-19T02:44:33.175Z,101086.41
2022-10-19T02:45:39.987Z,101088.28
2022-10-19T02:46:52.096Z,101079.44
2022-10-19T02:48:01.743Z,101079.26
2022-10-19T02:49:07.421Z,101074.00
2022-10-19T02:50:11.702Z,101068.78
2022-10-19T02:51:32.815Z,101069.62
2022-10-19T02:52:39.777Z,101063.34
2022-10-19T02:53:42.800Z,101064.19
2022-10-19T02:54:46.278Z,101071.50
2022-10-19T02:55:50.500Z,101074.22
2022-10-19T02:56:53.817Z,101073.37
2022-10-19T02:57:56.928Z,101067.94
2022-10-19T02:59:00.130Z,101067.94
2022-10-19T03:00:06.187Z,101067.94
2022-10-19T03:01:09.504Z,101058.77
2022-10-19T03:02:14.009Z,101068.78
2022-10-19T03:03:17.142Z,101058.77
2022-10-19T03:04:20.297Z,101057.91
2022-10-19T03:05:23.501Z,101048.92
2022-10-19T03:06:26.512Z,101047.05
2022-10-19T03:07:29.621Z,101043.48
2022-10-19T03:08:32.759Z,101055.20
2022-10-19T03:09:35.777Z,101045.36
2022-10-19T03:10:38.965Z,101055.20
2022-10-19T03:11:42.098Z,101043.48
2022-10-19T03:12:45.430Z,101045.36
2022-10-19T03:14:51.665Z,101044.51
2022-10-19T03:15:54.946Z,101046.38
2022-10-19T03:16:58.030Z,101059.12
2022-10-19T03:18:01.299Z,101051.99
2022-10-19T03:19:04.429Z,101046.38
2022-10-19T03:20:08.587Z,101052.84
2022-10-19T03:21:13.104Z,101048.25
2022-10-19T03:22:16.218Z,101041.13
2022-10-19T03:23:19.261Z,101042.82
2022-10-19T03:24:22.647Z,101041.97
2022-10-19T03:25:25.738Z,101040.10
2022-10-19T03:26:29.377Z,101043.84
2022-10-19T03:27:32.727Z,101034.67
2022-10-19T03:28:36.132Z,101029.41
2022-10-19T03:29:39.194Z,101032.98
2022-10-19T03:30:42.205Z,101032.98
2022-10-19T03:31:45.313Z,101031.95
2022-10-19T03:32:48.426Z,101030.92
2022-10-19T03:33:51.574Z,101027.36
2022-10-19T03:34:54.836Z,101023.80
2022-10-19T03:37:27.388Z,101021.66
2022-10-19T03:38:30.856Z,101024.20
2022-10-19T03:39:34.500Z,101018.09
2022-10-19T03:40:38.511Z,101019.97
2022-10-19T03:41:41.936Z,101010.13
2022-10-19T03:42:45.117Z,101009.28
2022-10-19T03:43:48.738Z,101003.85
2022-10-19T03:44:51.828Z,101012.00
2022-10-19T03:45:54.805Z,101001.98
2022-10-19T03:46:57.949Z,101008.26
2022-10-19T03:48:01.094Z,101002.83
2022-10-19T03:49:04.988Z,101006.39
2022-10-19T03:50:10.665Z,101010.97
2022-10-19T03:51:20.538Z,101001.98
2022-10-19T03:52:23.713Z,101004.70
2022-10-19T03:53:26.817Z,100994.67
2022-10-19T03:54:29.909Z,100992.14
2022-10-19T03:55:33.066Z,100992.14
2022-10-19T03:56:36.081Z,100989.42
2022-10-19T03:57:39.417Z,100983.18
2022-10-19T03:58:44.517Z,100982.97
2022-10-19T03:59:48.590Z,100984.84
2022-10-19T04:00:51.660Z,100981.27
2022-10-19T04:01:54.989Z,100982.13
2022-10-19T04:02:58.064Z,100978.56
2022-10-19T04:04:02.956Z,100979.41
2022-10-19T04:05:07.076Z,100973.97
2022-10-19T04:06:19.656Z,100972.31
2022-10-19T04:07:21.837Z,100977.75
2022-10-19T04:08:24.995Z,100977.92
2022-10-19T04:09:28.415Z,100977.08
2022-10-19T04:10:31.520Z,100976.42
2022-10-19T04:11:35.345Z,100970.14
2022-10-19T04:12:38.480Z,100968.27
2022-10-19T04:13:41.687Z,100969.11
2022-10-19T04:14:56.949Z,100972.67
2022-10-19T04:15:49.744Z,100971.83
2022-10-19T04:16:52.856Z,100967.24
2022-10-19T04:17:56.086Z,100968.94
2022-10-19T04:18:59.721Z,100969.78
2022-10-19T04:20:02.780Z,100965.38
2022-10-19T04:21:06.445Z,100972.50
2022-10-19T04:22:09.581Z,100972.67
2022-10-19T04:23:12.760Z,100973.52
2022-10-19T04:24:18.239Z,100968.27
2022-10-19T04:25:21.438Z,100966.40
2022-10-19T04:26:24.497Z,100964.53
2022-10-19T04:27:27.538Z,100964.53
2022-10-19T04:28:30.973Z,100968.09
2022-10-19T04:29:34.163Z,100969.11
2022-10-19T04:30:37.538Z,100965.55
2022-10-19T04:31:40.876Z,100971.20
2022-10-19T04:32:43.980Z,100962.20
2022-10-19T04:34:50.079Z,100956.95
2022-10-19T04:35:59.676Z,100956.95
2022-10-19T04:49:07.475Z,100942.39
2022-10-19T04:50:10.685Z,100934.19
2022-10-19T04:51:15.772Z,100933.13
2022-10-19T04:52:18.792Z,100926.03
2022-10-19T04:53:22.077Z,100927.91
2022-10-19T04:54:25.221Z,100922.84
2022-10-19T04:55:28.437Z,100925.75
2022-10-19T04:56:31.831Z,100925.96
2022-10-19T04:57:35.328Z,100932.42
2022-10-19T04:58:38.707Z,100927.84
2022-10-19T04:59:41.880Z,100926.14
2022-10-19T05:00:45.181Z,100925.30
2022-10-19T05:01:48.400Z,100926.14
2022-10-19T05:02:51.385Z,100932.61
2022-10-19T05:04:59.525Z,100924.64
2022-10-19T05:06:02.783Z,100918.39
2022-10-19T05:07:05.904Z,100920.05
2022-10-19T05:08:10.278Z,100916.30
2022-10-19T05:09:13.510Z,100917.15
2022-10-19T05:10:16.833Z,100919.50
2022-10-19T05:11:20.413Z,100907.56
2022-10-19T05:12:23.451Z,100907.38
2022-10-19T05:13:26.581Z,100906.17
2022-10-19T05:14:31.371Z,100908.67
2022-10-19T05:15:34.378Z,100907.45
2022-10-19T05:16:37.428Z,100902.67
2022-10-19T05:17:40.425Z,100911.45
2022-10-19T05:18:48.890Z,100904.14
2022-10-19T05:19:51.884Z,100906.49
2022-10-19T05:22:34.196Z,100896.38
2022-10-19T05:23:37.940Z,100894.19
2022-10-19T05:24:41.050Z,100896.72
2022-10-19T05:25:44.151Z,100894.81
2022-10-19T05:26:47.343Z,100899.44
2022-10-19T05:27:51.999Z,100895.66
2022-10-19T05:29:00.583Z,100901.75
2022-10-19T05:30:05.917Z,100895.28
2022-10-19T05:31:11.529Z,100894.25
2022-10-19T05:32:14.657Z,100887.75
2022-10-19T05:33:17.593Z,100885.88
2022-10-19T05:34:20.660Z,100882.31
2022-10-19T05:35:23.797Z,100891.97
2022-10-19T05:36:34.229Z,100887.38
2022-10-19T05:37:37.377Z,100881.94
2022-10-19T05:38:41.324Z,100872.75
2022-10-19T05:39:44.749Z,100876.31
2022-10-19T05:40:51.586Z,100871.69
2022-10-19T05:41:52.609Z,100867.94
2022-10-19T05:42:55.691Z,100866.91
2022-10-19T05:44:01.110Z,100869.44
2022-10-19T05:45:04.949Z,100861.08
2022-10-19T05:46:11.333Z,100862.74
2022-10-19T05:47:14.528Z,100864.42
2022-10-19T05:48:17.672Z,100858.80
2022-10-19T05:49:22.185Z,100849.61
2022-10-19T05:50:25.396Z,100852.95
2022-10-19T05:51:28.756Z,100850.05
2022-10-19T05:52:32.003Z,100852.58
2022-10-19T05:53:35.269Z,100847.98
2022-10-19T05:54:38.620Z,100846.72
2022-10-19T05:55:43.603Z,100834.81
2022-10-19T05:56:46.763Z,100834.63
2022-10-19T05:57:49.781Z,100826.27
2022-10-19T05:58:54.977Z,100826.05
2022-10-19T05:59:58.070Z,100833.17
2022-10-19T06:01:02.357Z,100833.83
2022-10-19T06:02:06.010Z,100834.45
2022-10-19T06:03:09.164Z,100834.26
2022-10-19T06:04:14.392Z,100824.22
2022-10-19T06:05:17.525Z,100824.87
2022-10-19T06:06:21.514Z,100823.80
2022-10-19T06:07:24.507Z,100819.86
2022-10-19T06:08:27.646Z,100824.27
2022-10-19T06:09:32.508Z,100821.35
2022-10-19T06:10:35.656Z,100815.50
2022-10-19T06:11:40.546Z,100824.31
2022-10-19T06:12:43.672Z,100809.45
2022-10-19T06:13:49.834Z,100809.87
2022-10-19T06:14:52.855Z,100809.67
2022-10-19T06:15:56.210Z,100801.12
2022-10-19T06:16:59.175Z,100798.18
2022-10-19T06:18:07.455Z,100796.11
2022-10-19T06:19:10.433Z,100789.63
2022-10-19T06:20:13.987Z,100789.21
2022-10-19T06:21:19.522Z,100784.41
2022-10-19T06:22:22.622Z,100790.28
2022-10-19T06:23:25.706Z,100787.36
2022-10-19T06:24:28.682Z,100788.02
2022-10-19T06:25:32.778Z,100777.73
2022-10-19T06:26:35.831Z,100783.64
2022-10-19T06:27:39.070Z,100785.09
2022-10-19T06:28:43.674Z,100784.70
2022-10-19T06:29:46.688Z,100784.28
2022-10-19T06:30:49.855Z,100786.61
2022-10-19T06:31:53.989Z,100781.78
2022-10-19T06:32:58.836Z,100776.98
2022-10-19T06:34:02.612Z,100776.56
2022-10-19T06:35:06.337Z,100786.22
2022-10-19T06:36:19.152Z,100778.66
2022-10-19T06:37:22.231Z,100779.11
2022-10-19T06:38:25.183Z,100778.69
2022-10-19T06:39:28.230Z,100778.29
2022-10-19T06:40:31.499Z,100772.61
2022-10-19T06:41:34.725Z,100771.38
2022-10-19T06:42:39.789Z,100781.00
2022-10-19T06:43:43.614Z,100773.47
2022-10-19T06:44:46.639Z,100772.23
2022-10-19T06:45:49.646Z,100770.13
2022-10-19T06:46:52.993Z,100769.92
2022-10-19T06:47:56.012Z,100764.05
2022-10-19T06:49:01.410Z,100759.27
2022-10-19T06:50:05.669Z,100758.03
2022-10-19T06:51:09.105Z,100755.92
2022-10-19T06:52:12.322Z,100750.91
2022-10-19T06:53:15.307Z,100752.36
2022-10-19T06:54:18.409Z,100753.61
2022-10-19T06:55:21.495Z,100749.65
2022-10-19T06:56:25.619Z,100753.62
2022-10-19T06:57:29.124Z,100749.66
2022-10-19T06:58:37.172Z,100743.77
2022-10-19T06:59:55.142Z,100746.09
2022-10-19T07:02:57.918Z,100738.73
2022-10-19T07:04:02.270Z,100742.73
2022-10-19T07:05:07.278Z,100746.06
2022-10-19T07:06:12.265Z,100739.37
2022-10-19T07:07:15.175Z,100740.81
2022-10-19T07:08:46.220Z,100737.69
2022-10-19T07:09:48.951Z,100736.20
2022-10-19T07:10:54.107Z,100728.42
2022-10-19T07:11:57.156Z,100725.70
2022-10-19T07:13:00.274Z,100722.77
2022-10-19T07:14:03.407Z,100722.36
2022-10-19T07:15:07.082Z,100720.03
2022-10-19T07:16:16.071Z,100712.25
2022-10-19T07:17:17.916Z,100719.19
2022-10-19T07:18:20.911Z,100710.34
2022-10-19T07:19:26.779Z,100714.32
2022-10-19T07:20:29.763Z,100718.92
2022-10-19T07:21:32.915Z,100707.59
2022-10-19T07:22:36.275Z,100710.52
2022-10-19T07:23:41.463Z,100698.11
2022-10-19T07:24:45.374Z,100702.91
2022-10-19T07:25:48.572Z,100703.52
2022-10-19T07:26:51.639Z,100695.73
2022-10-19T07:27:54.689Z,100692.13
2022-10-19T07:28:58.053Z,100689.58
2022-10-19T07:30:01.335Z,100688.92
2022-10-19T07:31:09.464Z,100687.22
2022-10-19T07:32:12.447Z,100686.80
2022-10-19T07:34:18.844Z,100672.02
2022-10-19T07:35:21.888Z,100682.28
2022-10-19T07:36:25.889Z,100683.58
2022-10-19T07:37:29.051Z,100674.72
2022-10-19T07:38:32.986Z,100675.94
2022-10-19T07:39:36.366Z,100668.75
2022-10-19T07:40:43.557Z,100660.52
2022-10-19T07:41:45.239Z,100663.20
2022-10-19T07:42:48.500Z,100654.92
2022-10-19T07:43:52.190Z,100659.50
2022-10-19T07:44:55.142Z,100645.79
2022-10-19T07:46:01.719Z,100651.20
2022-10-19T07:47:05.625Z,100649.47
2022-10-19T07:48:08.764Z,100643.32
2022-10-19T07:49:16.031Z,100644.53
2022-10-19T07:50:19.237Z,100640.31
2022-10-19T07:51:22.457Z,100639.22
2022-10-19T07:52:25.434Z,100641.52
2022-10-19T07:53:28.511Z,100638.32
2022-10-19T07:54:31.565Z,100644.41
2022-10-19T07:55:34.459Z,100647.98
2022-10-19T07:56:37.453Z,100639.56
2022-10-19T07:57:43.628Z,100640.16
2022-10-19T07:58:46.306Z,100639.09
2022-10-19T07:59:49.454Z,100635.92
2022-10-19T08:00:56.446Z,100640.09
2022-10-19T08:02:01.381Z,100630.61
2022-10-19T08:04:13.877Z,100624.05
2022-10-19T08:05:14.212Z,100628.02
2022-10-19T08:06:20.097Z,100617.67
2022-10-19T08:07:23.449Z,100619.34
2022-10-19T08:08:26.462Z,100621.64
2022-10-19T08:10:34.417Z,100612.97
2022-10-19T08:11:37.482Z,100605.38
2022-10-19T08:12:40.506Z,100609.79
2022-10-19T08:13:43.483Z,100603.84
2022-10-19T08:14:47.555Z,100608.84
2022-10-19T08:15:50.755Z,100606.72
2022-10-19T08:16:53.984Z,100600.19
2022-10-19T08:17:57.048Z,100598.88
2022-10-19T08:19:02.542Z,100602.23
2022-10-19T08:20:06.329Z,100581.80
2022-10-19T08:21:09.481Z,100588.69
2022-10-19T08:22:12.798Z,100586.31
2022-10-19T08:23:16.019Z,100592.41
2022-10-19T08:24:19.879Z,100583.13
2022-10-19T08:25:22.850Z,100579.11
2022-10-19T08:26:28.288Z,100580.79
2022-10-19T08:27:31.285Z,100574.25
2022-10-19T08:28:34.336Z,100570.45
2022-10-19T08:29:51.262Z,100574.61
2022-10-19T08:30:56.677Z,100576.29
2022-10-19T08:31:59.592Z,100575.84
2022-10-19T08:33:05.530Z,100572.84
2022-10-19T08:34:10.603Z,100570.73
2022-10-19T08:35:13.682Z,100565.86
2022-10-19T08:36:18.928Z,100558.23
2022-10-19T08:37:39.966Z,100558.01
2022-10-19T08:38:26.911Z,100563.03
2022-10-19T08:39:30.053Z,100570.77
2022-10-19T08:40:33.071Z,100568.64
2022-10-19T08:41:54.184Z,100555.53
2022-10-19T08:43:00.790Z,100556.14
2022-10-19T08:44:30.159Z,100553.77
2022-10-19T08:45:51.737Z,100546.38
2022-10-19T08:46:59.632Z,100552.22
2022-10-19T08:48:18.456Z,100553.44
2022-10-19T08:49:24.565Z,100549.98
2022-10-19T08:50:31.195Z,100541.28
2022-10-19T08:51:37.906Z,100531.55
2022-10-19T08:52:42.883Z,100541.18
2022-10-19T08:53:58.151Z,100529.77
2022-10-19T08:55:05.591Z,100535.59
2022-10-19T08:56:26.822Z,100528.56
2022-10-19T08:57:24.370Z,100530.84
2022-10-19T08:58:45.708Z,100527.62
2022-10-19T09:00:14.724Z,100519.77
2022-10-19T09:01:42.261Z,100525.37
2022-10-19T09:03:06.348Z,100523.81
2022-10-19T09:04:21.725Z,100515.94
2022-10-19T09:05:34.184Z,100505.34
2022-10-19T09:06:49.828Z,100513.08
2022-10-19T09:07:54.252Z,100498.64
2022-10-19T09:08:58.098Z,100498.75
2022-10-19T09:10:16.446Z,100498.30
2022-10-19T09:11:23.184Z,100497.80
2022-10-19T09:12:38.431Z,100500.65
2022-10-19T09:14:04.225Z,100496.61
2022-10-19T09:14:55.647Z,100495.27
2022-10-19T09:15:58.843Z,100492.93
2022-10-19T09:17:05.478Z,100491.59
2022-10-19T09:18:20.313Z,100487.31
2022-10-19T09:19:27.906Z,100483.00
2022-10-19T09:20:35.131Z,100490.50
2022-10-19T09:21:53.666Z,100480.70
2022-10-19T09:23:07.660Z,100487.36
2022-10-19T09:24:31.764Z,100482.80
2022-10-19T09:25:37.869Z,100485.68
2022-10-19T09:26:44.281Z,100473.12
2022-10-19T09:27:50.372Z,100477.87
2022-10-19T09:29:02.964Z,100475.46
2022-10-19T09:31:34.949Z,100465.36
2022-10-19T09:32:39.211Z,100470.19
2022-10-19T09:33:45.714Z,100461.45
2022-10-19T09:34:52.309Z,100465.62
2022-10-19T09:35:57.612Z,100475.03
2022-10-19T09:37:00.719Z,100458.05
2022-10-19T09:38:06.304Z,100464.70
2022-10-19T09:39:13.631Z,100465.06
2022-10-19T09:40:25.857Z,100456.91
2022-10-19T09:41:28.926Z,100445.41
2022-10-19T09:42:33.757Z,100451.34
2022-10-19T09:43:37.438Z,100451.34
2022-10-19T09:44:40.741Z,100450.59
2022-10-19T09:45:53.629Z,100445.77
2022-10-19T09:47:20.009Z,100445.77
2022-10-19T09:48:32.421Z,100443.34
2022-10-19T09:49:41.112Z,100450.83
2022-10-19T09:50:44.952Z,100435.80
2022-10-19T09:51:51.699Z,100450.95
2022-10-19T09:52:58.244Z,100435.05
2022-10-19T09:54:01.571Z,100437.28
2022-10-19T09:55:07.647Z,100438.47
2022-10-19T09:56:23.225Z,100420.86
2022-10-19T09:57:26.351Z,100417.63
2022-10-19T09:58:32.909Z,100416.55
2022-10-19T09:59:36.884Z,100409.97
2022-10-19T10:00:43.015Z,100422.36
2022-10-19T10:01:46.149Z,100421.88
2022-10-19T10:02:51.664Z,100418.84
2022-10-19T10:04:07.191Z,100416.69
2022-10-19T10:05:13.660Z,100415.61
2022-10-19T10:06:17.685Z,100415.61
2022-10-19T10:07:21.077Z,100412.03
2022-10-19T10:08:27.436Z,100417.28
2022-10-19T10:09:30.668Z,100414.26
2022-10-19T10:10:39.070Z,100414.02
2022-10-19T10:11:45.473Z,100414.60
2022-10-19T10:12:48.820Z,100410.74
2022-10-19T10:13:53.899Z,100414.91
2022-10-19T10:14:56.881Z,100405.59
2022-10-19T10:16:03.031Z,100413.59
2022-10-19T10:17:22.008Z,100410.31
2022-10-19T10:18:26.296Z,100410.91
2022-10-19T10:19:31.853Z,100412.30
2022-10-19T10:20:35.130Z,100410.38
2022-10-19T10:21:50.441Z,100413.72
2022-10-19T10:23:02.683Z,100410.70
2022-10-19T10:24:15.768Z,100406.86
2022-10-19T10:25:18.846Z,100395.86
2022-10-19T10:26:25.215Z,100395.86
2022-10-19T10:27:35.088Z,100399.45
2022-10-19T10:28:41.898Z,100398.61
2022-10-19T10:29:48.475Z,100393.11
2022-10-19T10:31:06.127Z,100395.86
2022-10-19T10:32:20.052Z,100390.36
2022-10-19T10:33:40.401Z,100401.36
2022-10-19T10:34:49.434Z,100391.20
2022-10-19T10:35:40.187Z,100377.45
2022-10-19T10:36:43.415Z,100383.78
2022-10-19T10:37:47.630Z,100390.36
2022-10-19T10:38:53.660Z,100378.52
2022-10-19T10:40:00.533Z,100384.30
2022-10-19T10:41:07.901Z,100390.89
2022-10-19T10:42:17.006Z,100382.88
2022-10-19T10:43:23.161Z,100381.22
2022-10-19T10:44:30.191Z,100383.41
2022-10-19T10:45:46.012Z,100384.48
2022-10-19T10:46:55.963Z,100379.23
2022-10-19T10:48:02.458Z,100379.23
2022-10-19T10:49:07.696Z,100376.73
2022-10-19T10:50:14.445Z,100383.34
2022-10-19T10:51:38.522Z,100372.34
2022-10-19T10:52:45.148Z,100372.84
2022-10-19T10:53:48.481Z,100371.45
2022-10-19T10:55:09.740Z,100367.27
2022-10-19T10:56:27.755Z,100370.27
2022-10-19T10:57:34.202Z,100365.30
2022-10-19T10:58:49.978Z,100369.13
2022-10-19T11:00:15.188Z,100375.45
2022-10-19T11:01:21.792Z,100369.95
2022-10-19T11:02:50.140Z,100368.28
2022-10-19T11:03:56.764Z,100364.95
2022-10-19T11:05:03.557Z,100369.64
2022-10-19T11:06:08.634Z,100361.05
2022-10-19T11:07:23.544Z,100356.63
2022-10-19T11:08:33.126Z,100361.58
2022-10-19T11:09:44.945Z,100355.24
2022-10-19T11:11:03.824Z,100357.40
2022-10-19T11:12:10.401Z,100357.64
2022-10-19T11:13:26.027Z,100358.48
2022-10-19T11:14:50.491Z,100353.26
2022-10-19T11:16:06.137Z,100348.84
2022-10-19T11:17:12.746Z,100348.25
2022-10-19T11:18:25.654Z,100343.00
2022-10-19T11:19:35.051Z,100355.11
2022-10-19T11:20:41.611Z,100346.27
2022-10-19T11:21:50.945Z,100349.85
2022-10-19T11:23:06.552Z,100345.44
2022-10-19T11:24:38.585Z,100342.69
2022-10-19T11:25:56.885Z,100340.19
2022-10-19T11:27:28.740Z,100332.22
2022-10-19T11:28:51.851Z,100332.22
2022-10-19T11:30:15.099Z,100336.05
2022-10-19T11:31:33.882Z,100340.70
2022-10-19T11:32:58.482Z,100332.67
2022-10-19T11:34:27.547Z,100342.83
2022-10-19T11:35:51.020Z,100340.91
2022-10-19T11:37:00.384Z,100339.88
2022-10-19T11:38:19.566Z,100330.55
2022-10-19T11:39:37.225Z,100327.80
2022-10-19T11:42:01.024Z,100318.36
2022-10-19T11:43:07.840Z,100323.45
2022-10-19T11:44:23.662Z,100326.79
2022-10-19T11:45:35.857Z,100325.70
2022-10-19T11:46:42.373Z,100320.21
2022-10-19T11:47:59.242Z,100322.13
2022-10-19T11:49:23.925Z,100319.10
2022-10-19T11:50:54.129Z,100310.36
2022-10-19T11:52:03.228Z,100314.50
2022-10-19T11:53:38.684Z,100311.27
2022-10-19T11:55:04.719Z,100304.69
2022-10-19T11:56:11.279Z,100300.27
2022-10-19T11:57:30.117Z,100296.44
2022-10-19T11:58:42.525Z,100301.94
2022-10-19T12:00:15.030Z,100300.02
2022-10-19T12:01:23.202Z,100297.27
2022-10-19T12:02:41.899Z,100294.52
2022-10-19T12:03:57.294Z,100293.41
2022-10-19T12:05:03.052Z,100291.50
2022-10-19T12:06:12.459Z,100303.08
2022-10-19T12:07:52.397Z,100292.92
2022-10-19T12:08:58.869Z,100289.64
2022-10-19T12:10:13.950Z,100287.23
2022-10-19T12:11:29.669Z,100285.88
2022-10-19T12:12:38.734Z,100282.62
2022-10-19T12:13:45.435Z,100284.27
2022-10-19T12:14:54.899Z,100280.44
2022-10-19T12:16:00.181Z,100281.85
2022-10-19T12:17:06.835Z,100275.27
2022-10-19T12:18:19.439Z,100272.24
2022-10-19T12:19:38.321Z,100274.49
2022-10-19T12:20:44.943Z,100269.55
2022-10-19T12:21:49.630Z,100268.22
2022-10-19T12:22:52.859Z,100276.46
2022-10-19T12:24:02.755Z,100267.97
2022-10-19T12:25:06.416Z,100271.55
2022-10-19T12:26:13.580Z,100257.52
2022-10-19T12:27:20.116Z,100262.77
2022-10-19T12:28:32.705Z,100265.27
2022-10-19T12:29:39.270Z,100267.73
2022-10-19T12:30:42.423Z,100273.82
2022-10-19T12:31:46.432Z,100272.73
2022-10-19T12:33:09.327Z,100270.29
2022-10-19T12:34:24.379Z,100273.63
2022-10-19T12:35:48.951Z,100262.37
2022-10-19T12:37:13.901Z,100256.58
2022-10-19T12:38:23.467Z,100264.84
2022-10-19T12:39:49.258Z,100259.34
2022-10-19T12:41:01.847Z,100259.62
2022-10-19T12:42:14.473Z,100253.28
2022-10-19T12:44:34.799Z,100254.72
2022-10-19T12:45:50.417Z,100255.45
2022-10-19T12:47:00.769Z,100254.88
2022-10-19T12:48:18.059Z,100265.07
2022-10-19T12:49:30.677Z,100260.66
2022-10-19T12:50:53.273Z,100261.16
2022-10-19T12:52:01.206Z,100259.48
2022-10-19T12:53:04.229Z,100259.19
2022-10-19T12:54:09.231Z,100254.77
2022-10-19T12:55:32.376Z,100261.37
2022-10-19T12:56:39.045Z,100251.47
2022-10-19T12:57:47.530Z,100259.13
2022-10-19T12:58:56.919Z,100255.80
2022-10-19T13:00:03.332Z,100251.41
2022-10-19T13:01:08.118Z,100259.66
2022-10-19T13:02:15.611Z,100252.75
2022-10-19T13:03:25.076Z,100257.41
2022-10-19T13:04:30.943Z,100262.36
2022-10-19T13:05:35.561Z,100258.77
2022-10-19T13:06:42.137Z,100252.44
2022-10-19T13:07:48.632Z,100266.44
2022-10-19T13:08:57.920Z,100261.19
2022-10-19T13:10:04.327Z,100255.97
2022-10-19T13:11:14.773Z,100256.77
2022-10-19T13:12:25.876Z,100262.55
2022-10-19T13:13:51.004Z,100255.63
2022-10-19T13:15:02.300Z,100260.30
2022-10-19T13:16:09.406Z,100255.33